Time;durP1;ratioP1;P1;durP2;ratioP2;P2;SDS_P1;SDS_P2;PMS_P1;PMS_P2;Temp;Humidity;BMP_temperature;BMP_pressure;BME280_temperature;BME280_humidity;BME280_pressure;Samples;Min_cycle;Max_cycle;Signal;HPM_P1;HPM_P2
2023/02/25 00:01:34;;;;;;;4.82;2.70;;;3.30;99.90;;;1.55;100.00;98731.75;4947451;28;20033;-80
2023/02/25 00:04:00;;;;;;;7.32;2.80;;;3.30;99.90;;;1.54;100.00;98735.25;4909108;28;20038;-81
2023/02/25 00:06:33;;;;;;;5.40;3.67;;;3.20;99.90;;;1.51;100.00;98732.78;4954549;28;20022;-80
2023/02/25 00:08:59;;;;;;;7.18;3.60;;;3.20;99.90;;;1.49;100.00;98729.41;4908172;28;20029;-81
2023/02/25 00:11:26;;;;;;;4.22;2.50;;;3.20;99.90;;;1.47;100.00;98734.66;4952915;28;20380;-81
2023/02/25 00:13:52;;;;;;;5.30;2.45;;;3.20;99.90;;;1.41;100.00;98733.16;4926580;28;20039;-80
2023/02/25 00:16:27;;;;;;;3.28;2.45;;;3.20;99.90;;;1.43;100.00;98731.34;4966813;28;20034;-82
2023/02/25 00:18:55;;;;;;;3.27;2.33;;;3.10;99.90;;;1.39;100.00;98737.56;4947341;28;20737;-81
2023/02/25 00:21:22;;;;;;;4.38;3.00;;;3.10;99.90;;;1.39;100.00;98740.16;4950439;28;20273;-81
2023/02/25 00:23:56;;;;;;;8.75;2.53;;;3.10;99.90;;;1.37;100.00;98736.78;4939617;28;20042;-81
2023/02/25 00:26:22;;;;;;;3.05;2.22;;;3.10;99.90;;;1.37;100.00;98736.78;4931361;28;20576;-81
2023/02/25 00:28:48;;;;;;;2.88;2.33;;;3.10;99.90;;;1.36;100.00;98739.44;4942696;28;20042;-82
2023/02/25 00:31:30;;;;;;;5.43;3.53;;;3.00;99.90;;;1.35;100.00;98743.78;4925237;28;20038;-82
2023/02/25 00:34:01;;;;;;;5.85;3.92;;;3.10;99.90;;;1.33;100.00;98744.75;4915944;28;20156;-83
2023/02/25 00:36:27;;;;;;;6.78;3.80;;;3.10;99.90;;;1.35;100.00;98746.38;4930061;28;20034;-82
2023/02/25 00:38:56;;;;;;;4.90;3.15;;;3.00;99.90;;;1.29;100.00;98740.59;4949732;28;20064;-81
2023/02/25 00:41:31;;;;;;;5.90;3.85;;;3.00;99.90;;;1.30;100.00;98743.13;4916261;28;20042;-81
2023/02/25 00:44:00;;;;;;;9.27;3.63;;;3.00;99.90;;;1.26;100.00;98754.53;4940754;28;20026;-81
2023/02/25 00:46:33;;;;;;;4.72;3.22;;;3.00;99.90;;;1.26;100.00;98751.94;4951803;28;20198;-82
2023/02/25 00:48:59;;;;;;;6.78;3.90;;;3.00;99.90;;;1.25;100.00;98757.19;4919455;28;20105;-81
2023/02/25 00:51:31;;;;;;;8.35;4.38;;;3.00;99.90;;;1.25;100.00;98757.19;4952847;28;20085;-80
2023/02/25 00:54:06;;;;;;;5.72;3.60;;;3.00;99.90;;;1.27;100.00;98751.00;4937668;28;20057;-83
2023/02/25 00:56:31;;;;;;;10.40;4.65;;;3.00;99.90;;;1.28;100.00;98757.91;4970933;28;20095;-81
2023/02/25 00:58:58;;;;;;;7.15;4.05;;;3.00;99.90;;;1.25;100.00;98759.75;4908033;28;21200;-82
2023/02/25 01:01:32;;;;;;;6.18;3.25;;;3.00;99.90;;;1.23;100.00;98757.22;4952635;28;20072;-82
2023/02/25 01:03:59;;;;;;;8.88;4.38;;;3.00;99.90;;;1.22;100.00;98758.97;4960857;28;20030;-81
2023/02/25 01:06:27;;;;;;;6.47;2.90;;;2.90;99.90;;;1.20;100.00;98749.59;4929351;28;20038;-81
2023/02/25 01:09:06;;;;;;;7.82;3.35;;;2.90;99.90;;;1.21;100.00;98756.47;4899084;28;20035;-81
2023/02/25 01:11:37;;;;;;;11.95;4.70;;;2.90;99.90;;;1.21;100.00;98752.13;4920969;28;20113;-80
2023/02/25 01:14:19;;;;;;;10.07;4.32;;;2.90;99.90;;;1.20;100.00;98754.78;4910416;28;20038;-80
2023/02/25 01:16:49;;;;;;;9.02;4.43;;;2.90;99.90;;;1.21;100.00;98757.31;4926737;28;20041;-80
2023/02/25 01:19:23;;;;;;;5.20;3.17;;;2.90;99.90;;;1.18;100.00;98759.16;4980221;28;20044;-81
2023/02/25 01:21:59;;;;;;;10.25;4.03;;;2.90;99.90;;;1.18;100.00;98761.75;4936605;28;20052;-81
2023/02/25 01:24:30;;;;;;;;;;;2.90;99.90;;;1.12;100.00;98759.41;4980040;28;20124;-81
2023/02/25 01:27:11;;;;;;;8.75;4.20;;;2.90;99.90;;;1.17;100.00;98766.13;4974749;28;19913;-81
2023/02/25 01:29:39;;;;;;;7.80;4.40;;;2.90;99.90;;;1.23;100.00;98765.88;4962212;28;20026;-81
2023/02/25 01:32:14;;;;;;;9.50;4.20;;;2.90;99.90;;;1.26;100.00;98761.47;4977226;28;20041;-81
2023/02/25 01:34:40;;;;;;;6.78;3.78;;;2.90;99.90;;;1.28;100.00;98768.28;4967456;28;20515;-81
2023/02/25 01:37:14;;;;;;;10.10;4.00;;;3.00;99.90;;;1.34;100.00;98768.03;4927766;28;20042;-81
2023/02/25 01:39:40;;;;;;;12.65;5.40;;;3.00;99.90;;;1.39;100.00;98773.03;4930592;28;20506;-81
2023/02/25 01:42:19;;;;;;;7.18;4.50;;;3.00;99.90;;;1.44;100.00;98768.50;4946332;28;20084;-81
2023/02/25 01:45:18;;;;;;;10.73;4.88;;;3.10;99.90;;;1.44;100.00;98777.09;4949078;28;20034;-81
2023/02/25 01:47:53;;;;;;;4.85;3.35;;;3.10;99.90;;;1.41;100.00;98772.06;4945986;28;20108;-81
2023/02/25 01:50:25;;;;;;;6.18;2.78;;;3.10;99.90;;;1.39;100.00;98773.88;4936420;28;20506;-81
2023/02/25 01:53:01;;;;;;;6.25;2.92;;;;;;;1.40;100.00;98783.34;4933553;28;20037;-82
2023/02/25 01:55:29;;;;;;;7.70;2.70;;;3.10;99.90;;;1.38;100.00;98782.56;4939551;28;20634;-82
2023/02/25 01:58:08;;;;;;;7.38;3.50;;;3.10;99.90;;;1.40;100.00;98782.47;4941574;28;20030;-81
2023/02/25 02:00:48;;;;;;;;;;;;;;;;;;;;;
2023/02/25 02:03:14;;;;;;;3.17;2.03;;;3.00;99.90;;;1.25;100.00;98780.50;4973112;28;20411;-82
2023/02/25 02:06:41;;;;;;;2.97;2.28;;;3.00;99.90;;;1.22;100.00;98786.66;4960002;28;20580;-82
2023/02/25 02:09:23;;;;;;;2.67;1.17;;;;;;;1.14;100.00;98788.72;4916178;28;20099;-82
2023/02/25 02:12:11;;;;;;;3.47;1.25;;;2.90;99.90;;;1.08;100.00;98792.41;4855701;29;20112;-81
2023/02/25 02:14:42;;;;;;;1.50;1.02;;;2.80;99.90;;;1.05;100.00;98799.44;4848355;29;20036;-81
2023/02/25 02:17:32;;;;;;;2.05;0.90;;;2.80;99.90;;;0.99;100.00;98798.78;4825626;29;20473;-83
2023/02/25 02:20:47;;;;;;;5.40;0.95;;;2.80;99.90;;;1.00;100.00;98800.47;4954626;28;20063;-81
2023/02/25 02:24:18;;;;;;;1.67;1.20;;;2.80;99.90;;;0.99;100.00;98801.38;4910071;28;20157;-81
2023/02/25 02:27:01;;;;;;;0.70;0.65;;;2.70;99.90;;;0.91;100.00;98803.41;4964046;28;20038;-81
2023/02/25 02:29:38;;;;;;;0.95;0.82;;;2.70;99.90;;;0.92;100.00;98810.25;4992680;28;20041;-83
2023/02/25 02:32:14;;;;;;;2.45;0.93;;;2.70;99.90;;;0.86;100.00;98813.09;4957579;28;20036;-82
2023/02/25 02:34:57;;;;;;;;;;;2.60;99.90;;;0.85;100.00;98813.16;4982404;28;20092;-81
2023/02/25 02:38:03;;;;;;;1.50;0.98;;;2.70;99.90;;;0.86;100.00;98818.25;4976845;28;20266;-81
2023/02/25 02:41:07;;;;;;;1.23;0.80;;;2.60;99.90;;;0.86;100.00;98820.84;4940722;28;20040;-81
2023/02/25 02:43:39;;;;;;;0.82;0.77;;;2.60;99.90;;;0.87;100.00;98825.16;4928494;28;20053;-81
2023/02/25 02:46:27;;;;;;;1.48;0.80;;;2.60;99.90;;;0.88;100.00;98832.00;4968657;28;21730;-81
2023/02/25 02:49:46;;;;;;;3.63;1.20;;;2.60;99.90;;;0.88;100.00;98834.59;4913876;28;20050;-81
2023/02/25 02:52:42;;;;;;;0.40;0.40;;;2.60;99.90;;;0.84;100.00;98834.78;4939172;28;20053;-80
2023/02/25 02:55:22;;;;;;;2.40;0.50;;;2.60;99.90;;;0.82;100.00;98845.19;4971443;28;20030;-81
2023/02/25 02:57:59;;;;;;;1.08;0.63;;;2.60;99.90;;;0.81;100.00;98846.94;4958991;28;20270;-83
2023/02/25 03:00:33;;;;;;;1.17;0.57;;;2.60;99.90;;;0.84;100.00;98845.97;4917706;28;20034;-83
2023/02/25 03:03:25;;;;;;;1.55;0.43;;;2.60;99.90;;;0.84;100.00;98855.50;4944196;28;20530;-81
2023/02/25 03:05:52;;;;;;;1.00;0.47;;;2.60;99.90;;;0.88;100.00;98864.84;4905120;28;20038;-81
2023/02/25 03:08:28;;;;;;;1.67;0.45;;;2.60;99.90;;;0.85;100.00;98867.56;4922671;28;20061;-83
2023/02/25 03:10:54;;;;;;;0.45;0.40;;;2.60;99.90;;;0.85;100.00;98868.41;4970588;28;20038;-81
2023/02/25 03:13:20;;;;;;;2.50;0.50;;;2.60;99.90;;;0.83;100.00;98872.81;4933619;28;20081;-81
2023/02/25 03:15:55;;;;;;;0.50;0.30;;;2.60;99.90;;;0.81;100.00;98879.78;4938322;28;20034;-83
2023/02/25 03:18:43;;;;;;;0.75;0.30;;;2.60;99.90;;;0.84;100.00;98884.00;4923092;28;20035;-82
2023/02/25 03:21:20;;;;;;;0.20;0.20;;;2.60;99.90;;;0.80;100.00;98885.88;4972722;28;20033;-83
2023/02/25 03:23:47;;;;;;;3.53;0.30;;;2.60;99.90;;;0.77;100.00;98892.00;4973506;28;20040;-82
2023/02/25 03:26:21;;;;;;;0.65;0.28;;;;;;;0.74;100.00;98893.88;4909380;28;20041;-82
2023/02/25 03:28:50;;;;;;;1.27;0.30;;;2.60;99.90;;;0.76;100.00;98902.44;4937248;28;20064;-80
2023/02/25 03:31:40;;;;;;;2.00;0.30;;;2.50;99.90;;;0.78;100.00;98913.59;4937163;28;20077;-81
2023/02/25 03:34:10;;;;;;;0.30;0.30;;;2.50;99.90;;;0.77;100.00;98911.88;4953500;28;20486;-82
2023/02/25 03:36:54;;;;;;;0.20;0.10;;;2.60;99.90;;;0.74;100.00;98907.66;4964627;28;20718;-81
2023/02/25 03:39:27;;;;;;;0.40;0.10;;;2.50;99.90;;;0.71;100.00;98936.25;4923408;28;20039;-82
2023/02/25 03:42:05;;;;;;;1.63;0.20;;;2.50;99.90;;;0.69;100.00;98932.91;4935483;28;20297;-81
2023/02/25 03:44:40;;;;;;;0.35;0.13;;;2.50;99.90;;;0.68;100.00;98944.16;4946272;28;20038;-81
2023/02/25 03:47:12;;;;;;;3.13;0.50;;;2.50;99.90;;;0.69;100.00;98947.56;4921250;28;20029;-81
2023/02/25 03:50:22;;;;;;;1.05;0.30;;;2.50;99.90;;;0.71;100.00;98953.56;4927151;28;20312;-82
2023/02/25 03:52:48;;;;;;;3.72;0.25;;;2.50;99.90;;;0.71;100.00;98966.50;4978274;28;20069;-82
2023/02/25 03:55:38;;;;;;;0.30;0.10;;;2.50;99.90;;;0.70;100.00;98962.22;4941126;28;20459;-82
2023/02/25 03:58:09;;;;;;;1.27;0.25;;;2.50;99.90;;;0.69;100.00;98971.75;4925351;28;20168;-82
2023/02/25 04:01:01;;;;;;;1.30;0.30;;;2.50;99.90;;;0.67;100.00;98978.72;4971909;28;20042;-81
2023/02/25 04:03:27;;;;;;;1.30;0.40;;;2.50;99.90;;;0.66;100.00;98983.97;4977473;28;20065;-82
2023/02/25 04:05:53;;;;;;;1.40;0.15;;;2.50;99.90;;;0.67;100.00;98994.28;4924054;28;20110;-81
2023/02/25 04:08:19;;;;;;;0.40;0.22;;;2.40;99.90;;;0.65;100.00;99000.38;4948727;28;20041;-81
2023/02/25 04:10:49;;;;;;;0.95;0.20;;;2.40;99.90;;;0.61;100.00;99007.44;4958660;28;20184;-82
2023/02/25 04:13:16;;;;;;;2.83;0.30;;;2.40;99.90;;;0.58;100.00;99003.22;4943960;28;20468;-82
2023/02/25 04:15:42;;;;;;;0.55;0.30;;;2.40;99.90;;;0.61;100.00;99015.19;4920962;28;20045;-80
2023/02/25 04:18:08;;;;;;;1.38;0.20;;;2.40;99.90;;;0.60;100.00;99019.53;4871798;28;20044;-82
2023/02/25 04:20:34;;;;;;;0.43;0.30;;;2.40;99.90;;;0.63;100.00;99028.94;4928928;28;20042;-82
2023/02/25 04:23:06;;;;;;;1.15;0.20;;;2.40;99.90;;;0.61;100.00;99018.63;4924398;28;20037;-82
2023/02/25 04:25:35;;;;;;;1.02;0.35;;;2.40;99.90;;;0.60;100.00;99029.03;4942470;28;20514;-80
2023/02/25 04:28:01;;;;;;;0.22;0.15;;;2.40;99.90;;;0.59;100.00;99035.97;4937884;28;20041;-81
2023/02/25 04:30:27;;;;;;;1.48;0.40;;;2.40;99.90;;;0.59;100.00;99043.72;4953214;28;20124;-82
2023/02/25 04:33:00;;;;;;;1.05;0.32;;;2.40;99.90;;;0.57;100.00;99036.91;4977004;28;20371;-82
2023/02/25 04:35:28;;;;;;;1.38;0.30;;;2.40;99.90;;;0.56;100.00;99042.97;4960183;28;20470;-80
2023/02/25 04:37:54;;;;;;;1.20;0.30;;;2.40;99.90;;;0.58;100.00;99051.53;4953531;28;20141;-83
2023/02/25 04:40:23;;;;;;;0.77;0.15;;;2.40;99.90;;;0.58;100.00;99042.06;4949825;28;20523;-81
2023/02/25 04:42:51;;;;;;;1.20;0.52;;;2.30;99.90;;;0.58;100.00;99051.53;4918147;28;20042;-82
2023/02/25 04:45:19;;;;;;;1.75;0.40;;;2.30;99.90;;;0.55;100.00;99052.50;4976410;28;20036;-82
2023/02/25 04:47:45;;;;;;;1.52;0.28;;;2.40;99.90;;;0.58;100.00;99052.41;4957171;28;20037;-82
2023/02/25 04:50:20;;;;;;;0.52;0.10;;;2.30;99.90;;;0.56;100.00;99053.34;4957344;28;20069;-81
2023/02/25 04:52:46;;;;;;;0.65;0.10;;;2.30;99.90;;;0.52;100.00;99064.69;4923583;28;20547;-82
2023/02/25 04:55:12;;;;;;;0.28;0.20;;;2.30;99.90;;;0.47;100.00;99064.00;4945686;28;20046;-82
2023/02/25 04:57:41;;;;;;;0.50;0.20;;;2.30;99.90;;;0.39;100.00;99066.84;4964823;23;20046;-80
2023/02/25 05:00:17;;;;;;;1.75;0.20;;;2.20;99.90;;;0.33;100.00;99062.69;4955385;28;20054;-82
2023/02/25 05:02:53;;;;;;;1.98;0.20;;;2.20;99.90;;;0.29;100.00;99074.03;5014578;28;20394;-81
2023/02/25 05:05:19;;;;;;;0.00;0.00;;;2.10;99.90;;;0.26;100.00;99068.09;4949698;28;20065;-82
2023/02/25 05:07:56;;;;;;;0.13;0.10;;;2.10;99.90;;;0.24;100.00;99073.34;4945510;28;20539;-83
2023/02/25 05:10:22;;;;;;;1.00;0.20;;;2.10;99.90;;;0.26;100.00;99086.22;4930120;28;20018;-80
2023/02/25 05:12:48;;;;;;;1.40;0.10;;;2.10;99.90;;;0.21;100.00;99083.78;4966703;28;20041;-82
2023/02/25 05:15:21;;;;;;;1.27;0.30;;;2.00;99.90;;;0.16;100.00;99090.84;4950193;28;20025;-82
2023/02/25 05:17:47;;;;;;;0.60;0.15;;;2.00;99.90;;;0.09;100.00;99090.19;4959026;23;20039;-82
2023/02/25 05:20:18;;;;;;;1.23;0.20;;;1.90;99.90;;;0.08;100.00;99101.41;4964327;28;20097;-81
2023/02/25 05:22:50;;;;;;;0.98;0.20;;;1.90;99.90;;;0.08;100.00;99104.00;4976431;28;20491;-82
2023/02/25 05:25:17;;;;;;;0.38;0.30;;;1.90;99.90;;;0.01;100.00;99102.50;4937334;28;20543;-81
2023/02/25 05:27:43;;;;;;;0.55;0.20;;;1.90;99.90;;;0.01;100.00;99118.03;4942576;28;20038;-81
2023/02/25 05:30:10;;;;;;;0.90;0.20;;;1.80;99.90;;;-0.01;100.00;99112.06;4926709;28;20446;-81
2023/02/25 05:32:44;;;;;;;0.55;0.20;;;1.80;99.90;;;-0.08;100.00;99124.31;4959250;28;20040;-81
2023/02/25 05:35:10;;;;;;;0.45;0.17;;;1.80;99.90;;;-0.14;100.00;99131.41;4908070;28;20034;-81
2023/02/25 05:37:37;;;;;;;4.00;0.52;;;1.70;99.90;;;-0.16;100.00;99135.78;4955679;28;20157;-82
2023/02/25 05:40:03;;;;;;;0.35;0.20;;;1.70;99.90;;;-0.23;100.00;99130.78;4968717;28;20034;-82
2023/02/25 05:42:34;;;;;;;0.40;0.28;;;1.70;99.90;;;-0.25;100.00;99142.91;4978965;28;20038;-82
2023/02/25 05:45:00;;;;;;;0.50;0.20;;;1.60;99.90;;;-0.30;100.00;99139.59;4906809;28;20051;-80
2023/02/25 05:47:26;;;;;;;1.23;0.30;;;1.60;99.90;;;-0.34;100.00;99157.84;4934265;28;20045;-83
2023/02/25 05:49:52;;;;;;;0.88;0.30;;;1.50;99.90;;;-0.33;100.00;99156.94;4932801;28;20531;-81
2023/02/25 05:52:18;;;;;;;2.03;0.40;;;1.60;99.90;;;-0.33;100.00;99152.59;4948234;28;20033;-83
2023/02/25 05:54:43;;;;;;;0.30;0.30;;;1.50;99.90;;;-0.32;100.00;99166.41;4925193;28;20057;-81
2023/02/25 05:57:14;;;;;;;0.90;0.30;;;1.50;99.90;;;-0.34;100.00;99171.63;4920582;28;20102;-82
2023/02/25 05:59:40;;;;;;;1.00;0.30;;;1.50;99.90;;;-0.38;100.00;99172.59;4946903;28;20096;-80
2023/02/25 06:02:06;;;;;;;0.70;0.55;;;1.50;99.90;;;-0.38;100.00;99179.50;4930091;28;20039;-81
2023/02/25 06:04:32;;;;;;;0.68;0.40;;;1.50;99.90;;;-0.38;100.00;99184.69;4931090;28;20033;-81
2023/02/25 06:06:58;;;;;;;0.25;0.20;;;1.40;99.90;;;-0.44;100.00;99190.84;4920992;28;20117;-81
2023/02/25 06:09:31;;;;;;;1.63;0.35;;;1.40;99.90;;;-0.46;100.00;99200.38;4927845;28;20041;-80
2023/02/25 06:11:56;;;;;;;0.80;0.38;;;1.40;99.90;;;-0.50;100.00;99203.94;4933711;28;20121;-81
2023/02/25 06:14:22;;;;;;;1.00;0.68;;;1.40;99.90;;;-0.50;100.00;99204.78;4964202;28;20117;-79
2023/02/25 06:16:49;;;;;;;1.70;0.55;;;1.40;99.90;;;-0.51;100.00;99216.00;4928281;28;20034;-80
2023/02/25 06:19:16;;;;;;;1.40;0.38;;;1.40;99.90;;;-0.51;100.00;99228.94;5005577;22;20112;-80
2023/02/25 06:21:46;;;;;;;4.25;1.08;;;1.30;99.90;;;-0.44;100.00;99239.97;4971123;28;20029;-81
2023/02/25 06:24:12;;;;;;;0.82;0.47;;;1.40;99.90;;;-0.49;100.00;99239.25;4946258;28;20667;-80
2023/02/25 06:26:40;;;;;;;0.93;0.30;;;1.40;99.90;;;-0.52;100.00;99231.56;4939319;28;20032;-80
2023/02/25 06:29:07;;;;;;;2.10;0.43;;;1.40;99.90;;;-0.53;100.00;99246.22;4930179;28;20029;-81
2023/02/25 06:31:40;;;;;;;3.55;0.60;;;1.30;99.90;;;-0.51;100.00;99259.13;4951171;28;20439;-80
2023/02/25 06:34:06;;;;;;;1.10;0.25;;;1.40;99.90;;;-0.54;100.00;99275.56;4962168;28;20030;-81
2023/02/25 06:36:32;;;;;;;0.32;0.22;;;1.30;99.90;;;-0.55;100.00;99265.25;4930773;28;20110;-79
2023/02/25 06:38:58;;;;;;;1.75;0.47;;;1.30;99.90;;;-0.49;100.00;99267.72;4978142;28;20025;-80
2023/02/25 06:41:32;;;;;;;0.95;0.40;;;1.30;99.90;;;-0.52;100.00;99283.28;4936533;28;20026;-79
2023/02/25 06:43:57;;;;;;;0.75;0.40;;;1.30;99.90;;;-0.56;100.00;99284.22;4931684;28;20055;-81
2023/02/25 06:46:25;;;;;;;2.03;0.40;;;1.30;99.90;;;-0.54;100.00;99292.81;4969171;28;20034;-80
2023/02/25 06:48:54;;;;;;;1.63;0.40;;;1.30;99.90;;;-0.53;100.00;99292.78;4967173;28;20058;-80
2023/02/25 06:51:21;;;;;;;1.83;0.52;;;1.30;99.90;;;-0.52;100.00;99298.78;4936887;28;20029;-81
2023/02/25 06:53:47;;;;;;;0.82;0.40;;;1.30;99.90;;;-0.49;100.00;99311.66;4959760;28;20056;-81
2023/02/25 06:56:14;;;;;;;1.58;0.40;;;1.40;99.90;;;-0.51;100.00;99306.53;4949661;28;20435;-80
2023/02/25 06:58:41;;;;;;;1.70;0.60;;;1.30;99.90;;;-0.49;100.00;99317.69;4964843;28;20101;-78
2023/02/25 07:01:12;;;;;;;0.55;0.38;;;1.30;99.90;;;-0.51;100.00;99326.38;4951432;28;20050;-79
2023/02/25 07:03:38;;;;;;;2.65;0.50;;;1.30;99.90;;;-0.51;100.00;99321.19;4967885;28;20033;-80
2023/02/25 07:06:04;;;;;;;2.67;0.40;;;1.30;99.90;;;-0.51;100.00;99334.13;4919615;28;20130;-80
2023/02/25 07:08:31;;;;;;;0.52;0.40;;;1.40;99.90;;;-0.51;100.00;99340.13;4958576;28;20038;-78
2023/02/25 07:11:20;;;;;;;1.20;0.40;;;1.30;99.90;;;-0.55;100.00;99353.19;4966371;28;20030;-80
2023/02/25 07:13:48;;;;;;;3.22;0.40;;;1.30;99.90;;;-0.51;100.00;99355.66;4961307;28;20037;-80
2023/02/25 07:16:15;;;;;;;1.73;0.28;;;1.30;99.90;;;-0.52;100.00;99353.09;4982299;28;20042;-78
2023/02/25 07:18:42;;;;;;;1.40;0.63;;;1.40;99.90;;;-0.47;100.00;99354.69;4956133;28;20558;-77
2023/02/25 07:21:11;;;;;;;0.85;0.38;;;1.30;99.90;;;-0.43;100.00;99381.34;4956451;28;20602;-77
2023/02/25 07:23:39;;;;;;;0.77;0.40;;;1.40;99.90;;;-0.42;100.00;99383.03;4951658;28;20541;-77
2023/02/25 07:26:08;;;;;;;0.77;0.38;;;1.40;99.90;;;-0.46;100.00;99376.22;4963135;28;20695;-77
2023/02/25 07:28:35;;;;;;;6.03;0.75;;;1.40;99.90;;;-0.43;100.00;99382.19;4952457;28;20048;-75
2023/02/25 07:31:14;;;;;;;1.33;0.60;;;1.40;99.90;;;-0.42;100.00;99386.47;4973106;28;20044;-79
2023/02/25 07:33:42;;;;;;;0.93;0.57;;;1.40;99.90;;;-0.44;100.00;99390.81;4974307;28;20034;-76
2023/02/25 07:36:09;;;;;;;1.80;0.70;;;1.40;99.90;;;-0.47;100.00;99390.91;4975812;28;20403;-78
2023/02/25 07:38:36;;;;;;;1.05;0.70;;;1.40;99.90;;;-0.45;100.00;99406.38;4930875;28;20034;-77
2023/02/25 07:41:08;;;;;;;1.75;0.75;;;1.40;99.90;;;-0.43;100.00;99409.78;5003998;28;20633;-77
2023/02/25 07:43:36;;;;;;;2.15;0.55;;;1.40;99.90;;;-0.44;100.00;99419.25;4969364;28;20441;-78
2023/02/25 07:46:02;;;;;;;1.80;1.25;;;1.40;99.90;;;-0.39;100.00;99420.91;4952590;28;20038;-77
2023/02/25 07:48:28;;;;;;;0.40;0.40;;;1.30;99.90;;;-0.51;100.00;99422.88;4939994;28;20057;-77
2023/02/25 07:50:55;;;;;;;0.95;0.63;;;1.40;99.90;;;-0.45;100.00;99442.59;4964412;28;20044;-76
2023/02/25 07:53:22;;;;;;;2.25;0.55;;;1.40;99.90;;;-0.44;100.00;99441.69;4985604;28;20045;-76
2023/02/25 07:55:49;;;;;;;1.30;0.65;;;1.30;99.90;;;-0.49;100.00;99443.53;4958018;28;20034;-76
2023/02/25 07:58:15;;;;;;;1.77;0.60;;;1.30;99.90;;;-0.51;100.00;99446.16;4962409;28;20052;-76
2023/02/25 08:00:43;;;;;;;3.53;0.50;;;1.40;99.90;;;-0.45;100.00;99447.78;4964091;28;20375;-77
2023/02/25 08:03:09;;;;;;;1.30;0.52;;;1.30;99.90;;;-0.50;100.00;99452.16;4967043;28;20042;-76
2023/02/25 08:05:36;;;;;;;1.05;0.30;;;1.30;99.90;;;-0.47;100.00;99471.06;4974910;28;20049;-77
2023/02/25 08:08:04;;;;;;;4.13;0.77;;;1.30;99.90;;;-0.43;100.00;99464.94;4952884;28;21388;-75
2023/02/25 08:10:30;;;;;;;2.40;0.57;;;1.40;99.90;;;-0.37;100.00;99476.03;4974852;28;20494;-78
2023/02/25 08:12:56;;;;;;;1.17;0.47;;;1.40;99.90;;;-0.37;100.00;99473.44;4978896;28;20352;-77
2023/02/25 08:15:22;;;;;;;2.47;0.63;;;1.50;99.90;;;-0.33;100.00;99480.25;4978350;28;20040;-79
2023/02/25 08:17:50;;;;;;;2.28;0.70;;;1.40;99.90;;;-0.34;100.00;99482.00;4956481;28;20045;-76
2023/02/25 08:20:17;;;;;;;3.58;0.75;;;1.40;99.90;;;-0.36;100.00;99486.34;4984018;28;20041;-75
2023/02/25 08:23:07;;;;;;;0.95;0.75;;;1.40;99.90;;;-0.36;100.00;99496.69;4969721;28;20040;-76
2023/02/25 08:25:33;;;;;;;0.68;0.32;;;1.50;99.90;;;-0.40;100.00;99495.06;4938101;28;20046;-75
2023/02/25 08:28:00;;;;;;;1.38;0.50;;;1.40;99.90;;;-0.36;100.00;99501.88;5014017;28;20030;-78
2023/02/25 08:30:27;;;;;;;3.42;1.00;;;1.40;99.90;;;-0.34;100.00;99504.44;4962711;28;20117;-77
2023/02/25 08:32:52;;;;;;;2.85;0.45;;;1.50;99.90;;;-0.31;100.00;99517.28;4966013;28;20038;-76
2023/02/25 08:35:21;;;;;;;2.15;0.40;;;1.40;99.90;;;-0.41;100.00;99519.22;4964667;28;20044;-77
2023/02/25 08:37:46;;;;;;;1.30;0.60;;;1.40;99.90;;;-0.43;100.00;99516.66;4987316;28;20033;-76
2023/02/25 08:40:13;;;;;;;0.93;0.25;;;1.40;99.90;;;-0.40;100.00;99525.25;4975935;28;20050;-74
2023/02/25 08:42:39;;;;;;;2.42;0.30;;;1.40;99.90;;;-0.40;100.00;99530.41;4971752;28;20042;-77
2023/02/25 08:45:05;;;;;;;1.10;0.50;;;1.40;99.90;;;-0.46;100.00;99536.56;4992416;28;20045;-76
2023/02/25 08:47:32;;;;;;;0.63;0.20;;;1.30;99.90;;;-0.53;100.00;99546.19;4961501;28;20033;-77
2023/02/25 08:50:04;;;;;;;1.00;0.40;;;1.20;99.90;;;-0.63;100.00;99542.06;4947656;28;20991;-79
2023/02/25 08:52:32;;;;;;;0.60;0.35;;;1.30;99.90;;;-0.54;100.00;99541.03;4976640;28;20034;-79
2023/02/25 08:55:03;;;;;;;0.20;0.20;;;1.30;99.90;;;-0.32;100.00;99554.41;4973236;28;20030;-78
2023/02/25 08:57:29;;;;;;;0.28;0.28;;;1.40;99.90;;;-0.25;100.00;99561.97;4986530;28;20100;-77
2023/02/25 08:59:55;;;;;;;3.47;0.50;;;1.40;99.90;;;-0.33;100.00;99560.44;4974607;28;20030;-76
2023/02/25 09:02:23;;;;;;;0.73;0.30;;;1.50;99.90;;;-0.13;100.00;99558.28;4974500;28;20088;-77
2023/02/25 09:04:49;;;;;;;1.90;0.57;;;1.60;99.90;;;0.03;100.00;99568.31;4984850;28;20037;-77
2023/02/25 09:07:15;;;;;;;1.90;0.73;;;1.80;99.90;;;0.34;100.00;99578.81;4965985;28;20140;-76
2023/02/25 09:09:44;;;;;;;1.00;0.38;;;2.00;99.90;;;0.60;100.00;99593.72;4986189;28;20030;-77
2023/02/25 09:12:13;;;;;;;1.27;0.47;;;2.10;99.90;;;0.47;100.00;99585.41;4953822;28;20133;-78
2023/02/25 09:14:39;;;;;;;0.85;0.40;;;2.00;99.90;;;0.04;100.00;99591.56;4978718;28;20521;-78
2023/02/25 09:17:06;;;;;;;0.43;0.20;;;1.80;99.90;;;-0.14;100.00;99595.38;4970862;28;20041;-77
2023/02/25 09:19:33;;;;;;;2.08;0.50;;;1.70;99.90;;;-0.22;100.00;99602.44;4942535;28;20034;-77
2023/02/25 09:22:02;;;;;;;1.83;1.02;;;1.60;99.90;;;-0.16;100.00;99609.25;4941942;28;20050;-78
2023/02/25 09:24:28;;;;;;;2.33;0.45;;;1.50;99.90;;;-0.32;100.00;99612.16;4954907;28;20125;-79
2023/02/25 09:26:55;;;;;;;0.57;0.40;;;1.50;99.90;;;-0.28;100.00;99613.78;4978667;28;20037;-78
2023/02/25 09:29:21;;;;;;;4.78;0.50;;;1.50;99.90;;;-0.22;100.00;99621.44;4960463;28;20391;-79
2023/02/25 09:31:46;;;;;;;1.25;0.40;;;1.60;99.90;;;-0.23;100.00;99631.81;4960698;28;20076;-79
2023/02/25 09:34:21;;;;;;;0.60;0.25;;;1.50;99.90;;;-0.32;100.00;99635.44;4954302;28;20049;-78
2023/02/25 09:36:47;;;;;;;1.33;0.50;;;1.50;99.90;;;-0.36;100.00;99644.13;4954561;28;20112;-80
2023/02/25 09:39:13;;;;;;;1.38;0.40;;;1.40;99.90;;;-0.38;100.00;99639.88;4971805;28;20068;-79
2023/02/25 09:42:08;;;;;;;4.25;0.40;;;1.40;99.90;;;-0.27;100.00;99649.13;4978566;28;20065;-80
2023/02/25 09:44:47;;;;;;;1.00;0.30;;;1.50;99.90;;;-0.18;100.00;99640.31;4989426;28;20128;-78
2023/02/25 09:47:31;;;;;;;1.85;0.35;;;1.60;99.90;;;-0.08;100.00;99646.19;4986857;28;20464;-78
2023/02/25 09:50:20;;;;;;;0.52;0.35;;;1.60;99.90;;;-0.07;100.00;99665.97;4990542;28;20073;-79
2023/02/25 09:53:13;;;;;;;1.23;0.50;;;1.60;99.90;;;-0.04;100.00;99669.38;4957548;28;20419;-78
2023/02/25 09:55:49;;;;;;;2.00;0.60;;;1.70;99.90;;;-0.07;100.00;99673.75;4987600;28;20037;-78
2023/02/25 09:58:33;;;;;;;2.05;0.63;;;1.70;99.90;;;-0.04;100.00;99679.72;4974951;28;20045;-79
2023/02/25 10:01:10;;;;;;;1.83;0.50;;;1.70;99.90;;;0.04;100.00;99679.56;4949322;28;20120;-79
2023/02/25 10:04:00;;;;;;;5.97;1.00;;;1.80;99.90;;;0.09;100.00;99690.69;4994196;28;20037;-78
2023/02/25 10:06:49;;;;;;;1.27;0.40;;;1.70;99.90;;;-0.10;100.00;99699.69;4986059;28;20034;-78
2023/02/25 10:09:30;;;;;;;0.95;0.28;;;1.50;99.90;;;-0.21;100.00;99703.34;4976158;28;20045;-78
2023/02/25 10:12:39;;;;;;;1.38;0.35;;;1.60;99.90;;;-0.02;100.00;99698.66;5001863;28;20047;-77
2023/02/25 10:15:21;;;;;;;4.18;0.45;;;1.80;99.90;;;0.33;100.00;99715.22;4958753;28;20096;-77
2023/02/25 10:17:57;;;;;;;2.53;0.20;;;2.00;99.90;;;0.52;100.00;99725.16;4961850;28;20038;-77
2023/02/25 10:20:52;;;;;;;2.33;0.40;;;2.10;99.90;;;0.59;100.00;99726.75;4949333;28;20616;-78
2023/02/25 10:23:37;;;;;;;1.08;0.30;;;2.20;99.90;;;0.77;100.00;99735.84;4935587;28;20481;-78
2023/02/25 10:26:22;;;;;;;0.60;0.30;;;2.20;99.90;;;0.68;100.00;99736.06;4978224;28;20517;-78
2023/02/25 10:29:07;;;;;;;1.03;0.20;;;2.10;99.90;;;0.35;100.00;99734.16;4954622;28;20100;-78
2023/02/25 10:31:38;;;;;;;1.85;0.57;;;2.10;99.90;;;0.24;100.00;99749.06;4975978;28;20067;-78
2023/02/25 10:34:25;;;;;;;4.22;0.40;;;2.00;99.90;;;0.19;100.00;99753.47;4949424;28;20112;-79
2023/02/25 10:36:59;;;;;;;5.57;0.45;;;1.80;99.90;;;0.09;100.00;99763.16;4953943;28;20113;-78
2023/02/25 10:39:27;;;;;;;1.42;0.40;;;1.90;99.90;;;0.20;100.00;99756.03;4938892;28;20119;-77
2023/02/25 10:41:53;;;;;;;0.85;0.40;;;1.90;99.90;;;0.17;100.00;99755.22;4957995;28;20027;-78
2023/02/25 10:44:20;;;;;;;1.05;0.45;;;1.90;99.90;;;0.22;100.00;99768.09;4975728;28;20029;-78
2023/02/25 10:46:59;;;;;;;0.20;0.20;;;2.00;99.90;;;0.24;100.00;99767.19;4944131;28;20022;-79
2023/02/25 10:49:37;;;;;;;1.25;0.15;;;2.00;99.90;;;0.45;99.25;99775.41;4941792;28;20038;-78